sensor_id;sensor_type;location;lat;lon;timestamp;P1;durP1;ratioP1;P2;durP2;ratioP2
16766;SDS011;8501;49.926;8.404;2023-02-28T00:00:08;7.47;;;4.87;;
16766;SDS011;8501;49.926;8.404;2023-02-28T00:02:36;5.63;;;4.30;;
16766;SDS011;8501;49.926;8.404;2023-02-28T00:05:02;6.40;;;4.23;;
16766;SDS011;8501;49.926;8.404;2023-02-28T00:07:29;6.83;;;4.27;;
16766;SDS011;8501;49.926;8.404;2023-02-28T00:09:55;6.30;;;4.17;;
16766;SDS011;8501;49.926;8.404;2023-02-28T00:12:21;4.63;;;3.60;;
16766;SDS011;8501;49.926;8.404;2023-02-28T00:14:46;6.93;;;3.57;;
16766;SDS011;8501;49.926;8.404;2023-02-28T00:17:12;5.57;;;4.00;;
16766;SDS011;8501;49.926;8.404;2023-02-28T00:19:37;6.00;;;4.20;;
16766;SDS011;8501;49.926;8.404;2023-02-28T00:22:03;5.77;;;3.90;;
16766;SDS011;8501;49.926;8.404;2023-02-28T00:24:28;8.00;;;4.50;;
16766;SDS011;8501;49.926;8.404;2023-02-28T00:26:54;6.77;;;3.60;;
16766;SDS011;8501;49.926;8.404;2023-02-28T00:29:19;5.17;;;3.43;;
16766;SDS011;8501;49.926;8.404;2023-02-28T00:31:45;4.77;;;3.80;;
16766;SDS011;8501;49.926;8.404;2023-02-28T00:34:10;6.67;;;4.20;;
16766;SDS011;8501;49.926;8.404;2023-02-28T00:36:36;5.67;;;4.03;;
16766;SDS011;8501;49.926;8.404;2023-02-28T00:39:01;8.23;;;4.13;;
16766;SDS011;8501;49.926;8.404;2023-02-28T00:41:27;5.33;;;3.90;;
16766;SDS011;8501;49.926;8.404;2023-02-28T00:43:52;7.47;;;4.17;;
16766;SDS011;8501;49.926;8.404;2023-02-28T00:46:18;7.77;;;4.40;;
16766;SDS011;8501;49.926;8.404;2023-02-28T00:48:43;7.60;;;4.73;;
16766;SDS011;8501;49.926;8.404;2023-02-28T00:51:09;7.83;;;4.07;;
16766;SDS011;8501;49.926;8.404;2023-02-28T00:53:34;8.00;;;4.30;;
16766;SDS011;8501;49.926;8.404;2023-02-28T00:56:00;7.00;;;4.50;;
16766;SDS011;8501;49.926;8.404;2023-02-28T00:58:27;7.90;;;4.50;;
16766;SDS011;8501;49.926;8.404;2023-02-28T01:00:53;8.73;;;4.90;;
16766;SDS011;8501;49.926;8.404;2023-02-28T01:03:19;7.00;;;4.20;;
16766;SDS011;8501;49.926;8.404;2023-02-28T01:05:46;6.60;;;4.17;;
16766;SDS011;8501;49.926;8.404;2023-02-28T01:08:12;7.47;;;4.33;;
16766;SDS011;8501;49.926;8.404;2023-02-28T01:10:38;6.17;;;4.20;;
16766;SDS011;8501;49.926;8.404;2023-02-28T01:13:04;7.97;;;4.10;;
16766;SDS011;8501;49.926;8.404;2023-02-28T01:15:30;7.33;;;4.43;;
16766;SDS011;8501;49.926;8.404;2023-02-28T01:17:57;8.00;;;4.80;;
16766;SDS011;8501;49.926;8.404;2023-02-28T01:20:22;8.57;;;5.07;;
16766;SDS011;8501;49.926;8.404;2023-02-28T01:22:48;10.83;;;5.20;;
16766;SDS011;8501;49.926;8.404;2023-02-28T01:25:14;10.43;;;4.87;;
16766;SDS011;8501;49.926;8.404;2023-02-28T01:27:39;10.13;;;4.70;;
16766;SDS011;8501;49.926;8.404;2023-02-28T01:30:05;7.70;;;4.57;;
16766;SDS011;8501;49.926;8.404;2023-02-28T01:32:32;6.97;;;4.40;;
16766;SDS011;8501;49.926;8.404;2023-02-28T01:34:57;6.50;;;4.23;;
16766;SDS011;8501;49.926;8.404;2023-02-28T01:37:23;7.00;;;4.40;;
16766;SDS011;8501;49.926;8.404;2023-02-28T01:39:48;6.47;;;4.80;;
16766;SDS011;8501;49.926;8.404;2023-02-28T01:42:14;8.50;;;5.17;;
16766;SDS011;8501;49.926;8.404;2023-02-28T01:47:29;5.63;;;4.50;;
16766;SDS011;8501;49.926;8.404;2023-02-28T01:50:02;7.53;;;5.20;;
16766;SDS011;8501;49.926;8.404;2023-02-28T01:52:30;6.53;;;4.97;;
16766;SDS011;8501;49.926;8.404;2023-02-28T01:54:57;6.93;;;4.60;;
16766;SDS011;8501;49.926;8.404;2023-02-28T01:57:28;7.50;;;4.80;;
16766;SDS011;8501;49.926;8.404;2023-02-28T02:00:03;9.23;;;4.80;;
16766;SDS011;8501;49.926;8.404;2023-02-28T02:02:35;6.80;;;4.73;;
16766;SDS011;8501;49.926;8.404;2023-02-28T02:05:12;6.70;;;4.80;;
16766;SDS011;8501;49.926;8.404;2023-02-28T02:07:41;8.10;;;5.20;;
16766;SDS011;8501;49.926;8.404;2023-02-28T02:33:45;10.50;;;5.47;;
16766;SDS011;8501;49.926;8.404;2023-02-28T02:36:50;10.07;;;6.60;;
16766;SDS011;8501;49.926;8.404;2023-02-28T02:42:00;9.57;;;6.17;;
16766;SDS011;8501;49.926;8.404;2023-02-28T02:44:49;10.57;;;7.00;;
16766;SDS011;8501;49.926;8.404;2023-02-28T02:47:21;10.00;;;6.17;;
16766;SDS011;8501;49.926;8.404;2023-02-28T02:49:52;8.80;;;5.93;;
16766;SDS011;8501;49.926;8.404;2023-02-28T02:52:24;8.77;;;6.20;;
16766;SDS011;8501;49.926;8.404;2023-02-28T02:55:00;8.83;;;5.50;;
16766;SDS011;8501;49.926;8.404;2023-02-28T02:57:48;9.03;;;6.00;;
16766;SDS011;8501;49.926;8.404;2023-02-28T03:00:30;8.30;;;5.53;;
16766;SDS011;8501;49.926;8.404;2023-02-28T03:02:59;9.00;;;6.00;;
16766;SDS011;8501;49.926;8.404;2023-02-28T03:05:28;8.87;;;5.93;;
16766;SDS011;8501;49.926;8.404;2023-02-28T03:08:02;9.37;;;6.20;;
16766;SDS011;8501;49.926;8.404;2023-02-28T03:13:00;7.57;;;5.60;;
16766;SDS011;8501;49.926;8.404;2023-02-28T03:15:58;8.60;;;5.70;;
16766;SDS011;8501;49.926;8.404;2023-02-28T03:19:16;11.00;;;6.00;;
16766;SDS011;8501;49.926;8.404;2023-02-28T03:27:41;8.93;;;5.90;;
16766;SDS011;8501;49.926;8.404;2023-02-28T03:33:19;9.07;;;5.70;;
16766;SDS011;8501;49.926;8.404;2023-02-28T03:36:10;10.20;;;6.50;;
16766;SDS011;8501;49.926;8.404;2023-02-28T03:38:47;8.73;;;5.57;;
16766;SDS011;8501;49.926;8.404;2023-02-28T03:41:23;10.23;;;6.33;;
16766;SDS011;8501;49.926;8.404;2023-02-28T03:44:03;9.03;;;6.13;;
16766;SDS011;8501;49.926;8.404;2023-02-28T03:46:40;8.50;;;5.83;;
16766;SDS011;8501;49.926;8.404;2023-02-28T03:49:25;11.00;;;5.93;;
16766;SDS011;8501;49.926;8.404;2023-02-28T03:51:56;9.10;;;5.83;;
16766;SDS011;8501;49.926;8.404;2023-02-28T03:54:31;9.70;;;6.00;;
16766;SDS011;8501;49.926;8.404;2023-02-28T03:57:02;10.17;;;6.10;;
16766;SDS011;8501;49.926;8.404;2023-02-28T03:59:32;9.97;;;6.20;;
16766;SDS011;8501;49.926;8.404;2023-02-28T04:02:02;8.67;;;6.43;;
16766;SDS011;8501;49.926;8.404;2023-02-28T04:04:28;10.17;;;6.00;;
16766;SDS011;8501;49.926;8.404;2023-02-28T04:07:00;9.23;;;6.33;;
16766;SDS011;8501;49.926;8.404;2023-02-28T04:09:33;9.70;;;6.07;;
16766;SDS011;8501;49.926;8.404;2023-02-28T04:11:59;8.80;;;5.90;;
16766;SDS011;8501;49.926;8.404;2023-02-28T04:14:25;8.93;;;6.00;;
16766;SDS011;8501;49.926;8.404;2023-02-28T04:16:51;9.17;;;6.37;;
16766;SDS011;8501;49.926;8.404;2023-02-28T04:19:17;10.23;;;6.23;;
16766;SDS011;8501;49.926;8.404;2023-02-28T04:21:44;10.53;;;6.60;;
16766;SDS011;8501;49.926;8.404;2023-02-28T04:24:17;8.60;;;6.20;;
16766;SDS011;8501;49.926;8.404;2023-02-28T04:26:48;8.30;;;6.07;;
16766;SDS011;8501;49.926;8.404;2023-02-28T04:29:33;9.87;;;6.30;;
16766;SDS011;8501;49.926;8.404;2023-02-28T04:31:59;8.70;;;6.10;;
16766;SDS011;8501;49.926;8.404;2023-02-28T04:34:26;9.37;;;6.37;;
16766;SDS011;8501;49.926;8.404;2023-02-28T04:36:53;10.40;;;6.73;;
16766;SDS011;8501;49.926;8.404;2023-02-28T04:39:20;9.50;;;6.43;;
16766;SDS011;8501;49.926;8.404;2023-02-28T04:41:49;9.47;;;6.30;;
16766;SDS011;8501;49.926;8.404;2023-02-28T04:44:15;9.77;;;6.13;;
16766;SDS011;8501;49.926;8.404;2023-02-28T04:46:41;11.03;;;6.13;;
16766;SDS011;8501;49.926;8.404;2023-02-28T04:49:08;8.27;;;6.13;;
16766;SDS011;8501;49.926;8.404;2023-02-28T04:51:35;8.40;;;5.93;;
16766;SDS011;8501;49.926;8.404;2023-02-28T04:54:01;9.60;;;6.20;;
16766;SDS011;8501;49.926;8.404;2023-02-28T04:56:27;8.97;;;5.77;;
16766;SDS011;8501;49.926;8.404;2023-02-28T04:58:52;10.27;;;5.93;;
16766;SDS011;8501;49.926;8.404;2023-02-28T05:01:29;9.23;;;5.90;;
16766;SDS011;8501;49.926;8.404;2023-02-28T05:03:56;8.53;;;6.00;;
16766;SDS011;8501;49.926;8.404;2023-02-28T05:06:24;9.43;;;6.20;;
16766;SDS011;8501;49.926;8.404;2023-02-28T05:08:51;11.17;;;7.83;;
16766;SDS011;8501;49.926;8.404;2023-02-28T05:11:25;10.13;;;7.03;;
16766;SDS011;8501;49.926;8.404;2023-02-28T05:13:54;9.83;;;6.27;;
16766;SDS011;8501;49.926;8.404;2023-02-28T05:16:20;15.20;;;9.03;;
16766;SDS011;8501;49.926;8.404;2023-02-28T05:18:46;10.90;;;7.07;;
16766;SDS011;8501;49.926;8.404;2023-02-28T05:24:04;9.63;;;6.60;;
16766;SDS011;8501;49.926;8.404;2023-02-28T05:26:37;9.90;;;6.83;;
16766;SDS011;8501;49.926;8.404;2023-02-28T05:29:08;11.90;;;6.80;;
16766;SDS011;8501;49.926;8.404;2023-02-28T05:31:35;11.37;;;6.53;;
16766;SDS011;8501;49.926;8.404;2023-02-28T05:34:03;11.27;;;6.53;;
16766;SDS011;8501;49.926;8.404;2023-02-28T05:36:29;11.00;;;6.50;;
16766;SDS011;8501;49.926;8.404;2023-02-28T05:38:54;8.77;;;5.93;;
16766;SDS011;8501;49.926;8.404;2023-02-28T05:41:20;8.63;;;6.67;;
16766;SDS011;8501;49.926;8.404;2023-02-28T05:43:46;10.43;;;6.40;;
16766;SDS011;8501;49.926;8.404;2023-02-28T05:46:13;9.03;;;6.13;;
16766;SDS011;8501;49.926;8.404;2023-02-28T05:48:40;8.23;;;5.70;;
16766;SDS011;8501;49.926;8.404;2023-02-28T05:51:07;13.40;;;6.43;;
16766;SDS011;8501;49.926;8.404;2023-02-28T05:53:33;22.30;;;10.20;;
16766;SDS011;8501;49.926;8.404;2023-02-28T05:55:59;25.60;;;11.00;;
16766;SDS011;8501;49.926;8.404;2023-02-28T05:58:25;13.03;;;8.13;;
16766;SDS011;8501;49.926;8.404;2023-02-28T06:00:54;15.40;;;9.43;;
16766;SDS011;8501;49.926;8.404;2023-02-28T06:03:19;15.07;;;9.80;;
16766;SDS011;8501;49.926;8.404;2023-02-28T06:05:45;13.23;;;8.93;;
16766;SDS011;8501;49.926;8.404;2023-02-28T06:08:11;13.57;;;8.80;;
16766;SDS011;8501;49.926;8.404;2023-02-28T06:10:37;14.60;;;8.70;;
16766;SDS011;8501;49.926;8.404;2023-02-28T06:13:03;14.80;;;8.50;;
16766;SDS011;8501;49.926;8.404;2023-02-28T06:15:29;13.07;;;8.27;;
16766;SDS011;8501;49.926;8.404;2023-02-28T06:17:55;14.57;;;8.60;;
16766;SDS011;8501;49.926;8.404;2023-02-28T06:20:21;13.93;;;8.60;;
16766;SDS011;8501;49.926;8.404;2023-02-28T06:22:48;12.50;;;8.10;;
16766;SDS011;8501;49.926;8.404;2023-02-28T06:25:15;11.93;;;8.10;;
16766;SDS011;8501;49.926;8.404;2023-02-28T06:27:41;10.97;;;7.43;;
16766;SDS011;8501;49.926;8.404;2023-02-28T06:30:08;13.23;;;7.60;;
16766;SDS011;8501;49.926;8.404;2023-02-28T06:32:35;16.47;;;7.90;;
16766;SDS011;8501;49.926;8.404;2023-02-28T06:35:01;13.03;;;8.13;;
16766;SDS011;8501;49.926;8.404;2023-02-28T06:37:27;11.97;;;7.63;;
16766;SDS011;8501;49.926;8.404;2023-02-28T06:39:53;12.20;;;7.10;;
16766;SDS011;8501;49.926;8.404;2023-02-28T06:42:20;9.87;;;6.30;;
16766;SDS011;8501;49.926;8.404;2023-02-28T06:44:47;10.47;;;6.63;;
16766;SDS011;8501;49.926;8.404;2023-02-28T06:47:13;12.00;;;7.13;;
16766;SDS011;8501;49.926;8.404;2023-02-28T06:49:38;10.87;;;6.97;;
16766;SDS011;8501;49.926;8.404;2023-02-28T06:52:04;13.53;;;7.53;;
16766;SDS011;8501;49.926;8.404;2023-02-28T06:54:30;17.50;;;8.80;;
16766;SDS011;8501;49.926;8.404;2023-02-28T06:56:57;13.40;;;8.80;;
16766;SDS011;8501;49.926;8.404;2023-02-28T06:59:23;13.37;;;7.60;;
16766;SDS011;8501;49.926;8.404;2023-02-28T07:01:49;15.43;;;8.73;;
16766;SDS011;8501;49.926;8.404;2023-02-28T07:04:14;15.20;;;8.47;;
16766;SDS011;8501;49.926;8.404;2023-02-28T07:06:40;17.17;;;9.83;;
16766;SDS011;8501;49.926;8.404;2023-02-28T07:09:05;15.57;;;8.30;;
16766;SDS011;8501;49.926;8.404;2023-02-28T07:11:31;15.13;;;7.67;;
16766;SDS011;8501;49.926;8.404;2023-02-28T07:13:57;12.87;;;7.87;;
16766;SDS011;8501;49.926;8.404;2023-02-28T07:16:23;13.00;;;8.07;;
16766;SDS011;8501;49.926;8.404;2023-02-28T07:18:52;14.93;;;8.10;;
16766;SDS011;8501;49.926;8.404;2023-02-28T07:21:18;11.43;;;7.40;;
16766;SDS011;8501;49.926;8.404;2023-02-28T07:23:44;11.53;;;7.30;;
16766;SDS011;8501;49.926;8.404;2023-02-28T07:26:13;10.83;;;6.30;;
16766;SDS011;8501;49.926;8.404;2023-02-28T07:28:42;10.07;;;6.60;;
16766;SDS011;8501;49.926;8.404;2023-02-28T07:31:09;10.73;;;6.40;;
16766;SDS011;8501;49.926;8.404;2023-02-28T07:33:35;11.33;;;6.50;;
16766;SDS011;8501;49.926;8.404;2023-02-28T07:36:02;9.73;;;6.20;;
16766;SDS011;8501;49.926;8.404;2023-02-28T07:38:29;12.80;;;7.20;;
16766;SDS011;8501;49.926;8.404;2023-02-28T07:40:54;11.00;;;6.50;;
16766;SDS011;8501;49.926;8.404;2023-02-28T07:43:20;11.30;;;6.80;;
16766;SDS011;8501;49.926;8.404;2023-02-28T07:45:45;9.10;;;5.77;;
16766;SDS011;8501;49.926;8.404;2023-02-28T07:48:11;9.83;;;5.50;;
16766;SDS011;8501;49.926;8.404;2023-02-28T07:50:37;8.87;;;5.67;;
16766;SDS011;8501;49.926;8.404;2023-02-28T07:53:02;8.70;;;5.47;;
16766;SDS011;8501;49.926;8.404;2023-02-28T07:55:29;10.10;;;5.27;;
16766;SDS011;8501;49.926;8.404;2023-02-28T07:57:55;6.87;;;4.83;;
16766;SDS011;8501;49.926;8.404;2023-02-28T08:00:22;7.40;;;5.00;;
16766;SDS011;8501;49.926;8.404;2023-02-28T08:02:48;7.40;;;4.87;;
16766;SDS011;8501;49.926;8.404;2023-02-28T08:05:14;8.07;;;4.90;;
16766;SDS011;8501;49.926;8.404;2023-02-28T08:07:40;8.03;;;5.10;;
16766;SDS011;8501;49.926;8.404;2023-02-28T08:10:05;6.53;;;5.00;;
16766;SDS011;8501;49.926;8.404;2023-02-28T08:12:31;7.07;;;4.70;;
16766;SDS011;8501;49.926;8.404;2023-02-28T08:14:57;9.53;;;5.40;;
16766;SDS011;8501;49.926;8.404;2023-02-28T08:17:23;7.00;;;4.57;;
16766;SDS011;8501;49.926;8.404;2023-02-28T08:19:48;7.47;;;4.83;;
16766;SDS011;8501;49.926;8.404;2023-02-28T08:22:14;8.97;;;5.00;;
16766;SDS011;8501;49.926;8.404;2023-02-28T08:24:40;9.87;;;5.33;;
16766;SDS011;8501;49.926;8.404;2023-02-28T08:27:07;7.40;;;4.73;;
16766;SDS011;8501;49.926;8.404;2023-02-28T08:29:33;8.37;;;4.83;;
16766;SDS011;8501;49.926;8.404;2023-02-28T08:31:58;13.03;;;6.17;;
16766;SDS011;8501;49.926;8.404;2023-02-28T08:34:24;10.47;;;5.80;;
16766;SDS011;8501;49.926;8.404;2023-02-28T08:36:49;7.43;;;4.87;;
16766;SDS011;8501;49.926;8.404;2023-02-28T08:39:15;8.10;;;4.70;;
16766;SDS011;8501;49.926;8.404;2023-02-28T08:41:41;6.50;;;4.73;;
16766;SDS011;8501;49.926;8.404;2023-02-28T08:44:07;7.93;;;5.10;;
16766;SDS011;8501;49.926;8.404;2023-02-28T08:46:33;8.83;;;5.10;;
16766;SDS011;8501;49.926;8.404;2023-02-28T08:48:58;9.77;;;5.37;;
16766;SDS011;8501;49.926;8.404;2023-02-28T08:51:26;8.40;;;5.50;;
16766;SDS011;8501;49.926;8.404;2023-02-28T08:53:53;11.40;;;5.47;;
16766;SDS011;8501;49.926;8.404;2023-02-28T08:56:24;6.43;;;4.77;;
16766;SDS011;8501;49.926;8.404;2023-02-28T08:58:51;14.03;;;6.03;;
16766;SDS011;8501;49.926;8.404;2023-02-28T09:01:19;8.07;;;4.53;;
16766;SDS011;8501;49.926;8.404;2023-02-28T09:03:48;7.70;;;5.43;;
16766;SDS011;8501;49.926;8.404;2023-02-28T09:06:15;9.43;;;5.10;;
16766;SDS011;8501;49.926;8.404;2023-02-28T09:08:42;7.20;;;5.30;;
16766;SDS011;8501;49.926;8.404;2023-02-28T09:11:08;7.63;;;5.07;;
16766;SDS011;8501;49.926;8.404;2023-02-28T09:13:34;9.97;;;4.93;;
16766;SDS011;8501;49.926;8.404;2023-02-28T09:16:01;9.80;;;4.93;;
16766;SDS011;8501;49.926;8.404;2023-02-28T09:18:29;7.73;;;4.93;;
16766;SDS011;8501;49.926;8.404;2023-02-28T09:20:54;7.73;;;5.20;;
16766;SDS011;8501;49.926;8.404;2023-02-28T09:23:21;9.33;;;5.50;;
16766;SDS011;8501;49.926;8.404;2023-02-28T09:25:47;10.23;;;5.60;;
16766;SDS011;8501;49.926;8.404;2023-02-28T09:28:15;6.30;;;5.10;;
16766;SDS011;8501;49.926;8.404;2023-02-28T09:30:41;9.30;;;5.47;;
16766;SDS011;8501;49.926;8.404;2023-02-28T09:33:09;8.37;;;5.53;;
16766;SDS011;8501;49.926;8.404;2023-02-28T09:35:34;8.10;;;5.40;;
16766;SDS011;8501;49.926;8.404;2023-02-28T09:38:02;7.60;;;4.80;;
16766;SDS011;8501;49.926;8.404;2023-02-28T09:40:28;7.53;;;4.97;;
16766;SDS011;8501;49.926;8.404;2023-02-28T09:42:54;8.60;;;5.63;;
16766;SDS011;8501;49.926;8.404;2023-02-28T09:47:54;10.27;;;5.17;;
16766;SDS011;8501;49.926;8.404;2023-02-28T09:52:58;9.23;;;5.43;;
16766;SDS011;8501;49.926;8.404;2023-02-28T09:58:01;10.83;;;5.90;;
16766;SDS011;8501;49.926;8.404;2023-02-28T10:00:33;8.83;;;5.50;;
16766;SDS011;8501;49.926;8.404;2023-02-28T10:06:09;8.53;;;5.13;;
16766;SDS011;8501;49.926;8.404;2023-02-28T10:08:45;9.00;;;5.20;;
16766;SDS011;8501;49.926;8.404;2023-02-28T10:11:16;8.97;;;5.20;;
16766;SDS011;8501;49.926;8.404;2023-02-28T10:13:46;7.40;;;5.43;;
16766;SDS011;8501;49.926;8.404;2023-02-28T10:16:20;9.07;;;5.80;;
16766;SDS011;8501;49.926;8.404;2023-02-28T10:18:59;10.67;;;5.73;;
16766;SDS011;8501;49.926;8.404;2023-02-28T10:21:51;10.13;;;6.40;;
16766;SDS011;8501;49.926;8.404;2023-02-28T10:24:41;12.27;;;7.23;;
16766;SDS011;8501;49.926;8.404;2023-02-28T10:27:15;9.87;;;6.33;;
16766;SDS011;8501;49.926;8.404;2023-02-28T10:29:49;10.17;;;6.70;;
16766;SDS011;8501;49.926;8.404;2023-02-28T10:32:18;8.73;;;6.43;;
16766;SDS011;8501;49.926;8.404;2023-02-28T10:35:20;9.57;;;5.90;;
16766;SDS011;8501;49.926;8.404;2023-02-28T10:37:46;8.90;;;5.63;;
16766;SDS011;8501;49.926;8.404;2023-02-28T10:42:55;9.20;;;5.60;;
16766;SDS011;8501;49.926;8.404;2023-02-28T10:45:21;9.30;;;5.93;;
16766;SDS011;8501;49.926;8.404;2023-02-28T10:50:44;7.50;;;5.37;;
16766;SDS011;8501;49.926;8.404;2023-02-28T10:55:57;8.60;;;5.70;;
16766;SDS011;8501;49.926;8.404;2023-02-28T10:58:26;11.03;;;6.20;;
16766;SDS011;8501;49.926;8.404;2023-02-28T11:01:15;13.43;;;7.37;;
16766;SDS011;8501;49.926;8.404;2023-02-28T11:03:42;10.83;;;6.10;;
16766;SDS011;8501;49.926;8.404;2023-02-28T11:06:13;7.87;;;5.50;;
16766;SDS011;8501;49.926;8.404;2023-02-28T11:08:49;14.33;;;5.90;;
16766;SDS011;8501;49.926;8.404;2023-02-28T11:11:20;11.00;;;5.73;;
16766;SDS011;8501;49.926;8.404;2023-02-28T11:13:48;8.50;;;5.57;;
16766;SDS011;8501;49.926;8.404;2023-02-28T11:16:17;8.90;;;5.90;;
16766;SDS011;8501;49.926;8.404;2023-02-28T11:18:48;9.80;;;6.07;;
16766;SDS011;8501;49.926;8.404;2023-02-28T11:21:20;9.00;;;5.97;;
16766;SDS011;8501;49.926;8.404;2023-02-28T11:26:53;8.63;;;5.70;;
16766;SDS011;8501;49.926;8.404;2023-02-28T11:29:24;10.30;;;6.23;;
16766;SDS011;8501;49.926;8.404;2023-02-28T11:34:38;10.60;;;6.03;;
16766;SDS011;8501;49.926;8.404;2023-02-28T11:37:05;7.83;;;5.73;;
16766;SDS011;8501;49.926;8.404;2023-02-28T11:39:36;9.80;;;6.17;;
16766;SDS011;8501;49.926;8.404;2023-02-28T11:52:53;9.67;;;6.70;;
16766;SDS011;8501;49.926;8.404;2023-02-28T12:06:25;12.13;;;6.67;;
16766;SDS011;8501;49.926;8.404;2023-02-28T12:17:16;9.00;;;6.50;;
16766;SDS011;8501;49.926;8.404;2023-02-28T12:20:06;10.47;;;6.67;;
16766;SDS011;8501;49.926;8.404;2023-02-28T12:28:53;13.10;;;8.20;;
16766;SDS011;8501;49.926;8.404;2023-02-28T12:31:29;11.13;;;7.20;;
16766;SDS011;8501;49.926;8.404;2023-02-28T12:36:48;9.50;;;6.47;;
16766;SDS011;8501;49.926;8.404;2023-02-28T12:39:18;9.27;;;6.53;;
16766;SDS011;8501;49.926;8.404;2023-02-28T12:41:55;10.80;;;7.33;;
16766;SDS011;8501;49.926;8.404;2023-02-28T12:44:35;10.07;;;7.17;;
16766;SDS011;8501;49.926;8.404;2023-02-28T12:47:15;11.13;;;6.93;;
16766;SDS011;8501;49.926;8.404;2023-02-28T12:52:17;9.37;;;6.90;;
16766;SDS011;8501;49.926;8.404;2023-02-28T12:54:54;9.63;;;7.17;;
16766;SDS011;8501;49.926;8.404;2023-02-28T12:57:42;9.70;;;6.77;;
16766;SDS011;8501;49.926;8.404;2023-02-28T13:00:24;9.27;;;6.70;;
16766;SDS011;8501;49.926;8.404;2023-02-28T13:11:24;9.70;;;6.97;;
16766;SDS011;8501;49.926;8.404;2023-02-28T13:14:00;12.57;;;7.33;;
16766;SDS011;8501;49.926;8.404;2023-02-28T13:16:47;11.13;;;7.00;;
16766;SDS011;8501;49.926;8.404;2023-02-28T13:19:35;10.83;;;6.90;;
16766;SDS011;8501;49.926;8.404;2023-02-28T13:22:17;12.07;;;7.27;;
16766;SDS011;8501;49.926;8.404;2023-02-28T13:27:25;9.70;;;7.03;;
16766;SDS011;8501;49.926;8.404;2023-02-28T13:38:46;11.67;;;7.70;;
16766;SDS011;8501;49.926;8.404;2023-02-28T13:43:59;11.80;;;6.80;;
16766;SDS011;8501;49.926;8.404;2023-02-28T13:46:27;12.50;;;7.17;;
16766;SDS011;8501;49.926;8.404;2023-02-28T13:48:52;12.20;;;7.50;;
16766;SDS011;8501;49.926;8.404;2023-02-28T13:54:23;11.30;;;6.90;;
16766;SDS011;8501;49.926;8.404;2023-02-28T14:05:41;11.03;;;7.47;;
16766;SDS011;8501;49.926;8.404;2023-02-28T14:13:43;10.53;;;7.40;;
16766;SDS011;8501;49.926;8.404;2023-02-28T14:16:13;13.50;;;7.43;;
16766;SDS011;8501;49.926;8.404;2023-02-28T14:18:41;11.07;;;7.23;;
16766;SDS011;8501;49.926;8.404;2023-02-28T14:24:01;12.43;;;8.07;;
16766;SDS011;8501;49.926;8.404;2023-02-28T14:26:32;11.63;;;7.60;;
16766;SDS011;8501;49.926;8.404;2023-02-28T14:31:41;11.87;;;7.60;;
16766;SDS011;8501;49.926;8.404;2023-02-28T14:36:46;10.97;;;7.43;;
16766;SDS011;8501;49.926;8.404;2023-02-28T14:39:15;8.73;;;6.93;;
16766;SDS011;8501;49.926;8.404;2023-02-28T14:41:45;13.13;;;7.77;;
16766;SDS011;8501;49.926;8.404;2023-02-28T14:44:18;10.97;;;7.50;;
16766;SDS011;8501;49.926;8.404;2023-02-28T14:46:52;10.00;;;7.03;;
16766;SDS011;8501;49.926;8.404;2023-02-28T14:49:27;10.07;;;7.47;;
16766;SDS011;8501;49.926;8.404;2023-02-28T14:52:12;10.10;;;7.40;;
16766;SDS011;8501;49.926;8.404;2023-02-28T14:54:42;9.73;;;7.33;;
16766;SDS011;8501;49.926;8.404;2023-02-28T14:57:20;9.87;;;7.80;;
16766;SDS011;8501;49.926;8.404;2023-02-28T14:59:58;10.50;;;7.50;;
16766;SDS011;8501;49.926;8.404;2023-02-28T15:02:34;11.27;;;7.63;;
16766;SDS011;8501;49.926;8.404;2023-02-28T15:05:01;11.40;;;7.57;;
16766;SDS011;8501;49.926;8.404;2023-02-28T15:07:41;9.37;;;7.30;;
16766;SDS011;8501;49.926;8.404;2023-02-28T15:12:39;9.03;;;7.47;;
16766;SDS011;8501;49.926;8.404;2023-02-28T15:15:06;9.57;;;7.63;;
16766;SDS011;8501;49.926;8.404;2023-02-28T15:17:44;11.37;;;7.70;;
16766;SDS011;8501;49.926;8.404;2023-02-28T15:20:14;15.30;;;11.63;;
16766;SDS011;8501;49.926;8.404;2023-02-28T15:22:40;14.53;;;10.23;;
16766;SDS011;8501;49.926;8.404;2023-02-28T15:25:07;11.87;;;7.63;;
16766;SDS011;8501;49.926;8.404;2023-02-28T15:27:35;12.17;;;7.83;;
16766;SDS011;8501;49.926;8.404;2023-02-28T15:30:14;11.90;;;7.67;;
16766;SDS011;8501;49.926;8.404;2023-02-28T15:32:45;11.43;;;7.53;;
16766;SDS011;8501;49.926;8.404;2023-02-28T15:35:30;11.93;;;7.87;;
16766;SDS011;8501;49.926;8.404;2023-02-28T15:38:04;14.73;;;7.73;;
16766;SDS011;8501;49.926;8.404;2023-02-28T15:43:28;14.07;;;8.60;;
16766;SDS011;8501;49.926;8.404;2023-02-28T15:45:59;15.83;;;8.87;;
16766;SDS011;8501;49.926;8.404;2023-02-28T15:51:01;17.67;;;9.57;;
16766;SDS011;8501;49.926;8.404;2023-02-28T15:53:32;27.37;;;11.77;;
16766;SDS011;8501;49.926;8.404;2023-02-28T15:59:04;24.90;;;11.80;;
16766;SDS011;8501;49.926;8.404;2023-02-28T16:01:33;28.87;;;12.50;;
16766;SDS011;8501;49.926;8.404;2023-02-28T16:04:23;24.77;;;11.20;;
16766;SDS011;8501;49.926;8.404;2023-02-28T16:09:22;43.40;;;19.93;;
16766;SDS011;8501;49.926;8.404;2023-02-28T16:11:48;25.23;;;12.23;;
16766;SDS011;8501;49.926;8.404;2023-02-28T16:14:17;39.07;;;14.10;;
16766;SDS011;8501;49.926;8.404;2023-02-28T16:16:46;23.60;;;10.30;;
16766;SDS011;8501;49.926;8.404;2023-02-28T16:19:14;28.03;;;11.10;;
16766;SDS011;8501;49.926;8.404;2023-02-28T16:21:40;33.63;;;12.83;;
16766;SDS011;8501;49.926;8.404;2023-02-28T16:24:06;40.57;;;15.83;;
16766;SDS011;8501;49.926;8.404;2023-02-28T16:26:32;20.07;;;11.30;;
16766;SDS011;8501;49.926;8.404;2023-02-28T16:28:59;19.53;;;10.97;;
16766;SDS011;8501;49.926;8.404;2023-02-28T16:31:25;14.60;;;9.90;;
16766;SDS011;8501;49.926;8.404;2023-02-28T16:33:52;15.67;;;9.20;;
16766;SDS011;8501;49.926;8.404;2023-02-28T16:36:18;11.80;;;8.53;;
16766;SDS011;8501;49.926;8.404;2023-02-28T16:38:50;12.90;;;8.27;;
16766;SDS011;8501;49.926;8.404;2023-02-28T16:41:19;13.50;;;7.87;;
16766;SDS011;8501;49.926;8.404;2023-02-28T16:43:47;11.57;;;8.00;;
16766;SDS011;8501;49.926;8.404;2023-02-28T16:46:14;17.07;;;10.73;;
16766;SDS011;8501;49.926;8.404;2023-02-28T16:48:41;18.17;;;11.30;;
16766;SDS011;8501;49.926;8.404;2023-02-28T16:51:11;23.23;;;17.50;;
16766;SDS011;8501;49.926;8.404;2023-02-28T16:53:38;12.70;;;8.90;;
16766;SDS011;8501;49.926;8.404;2023-02-28T16:56:03;13.47;;;8.50;;
16766;SDS011;8501;49.926;8.404;2023-02-28T16:58:31;11.83;;;7.60;;
16766;SDS011;8501;49.926;8.404;2023-02-28T17:01:00;13.63;;;8.17;;
16766;SDS011;8501;49.926;8.404;2023-02-28T17:03:27;12.43;;;8.03;;
16766;SDS011;8501;49.926;8.404;2023-02-28T17:05:53;11.70;;;7.70;;
16766;SDS011;8501;49.926;8.404;2023-02-28T17:08:19;12.30;;;8.10;;
16766;SDS011;8501;49.926;8.404;2023-02-28T17:10:44;13.33;;;8.40;;
16766;SDS011;8501;49.926;8.404;2023-02-28T17:13:10;26.67;;;13.80;;
16766;SDS011;8501;49.926;8.404;2023-02-28T17:15:36;39.93;;;20.40;;
16766;SDS011;8501;49.926;8.404;2023-02-28T17:18:02;17.53;;;10.87;;
16766;SDS011;8501;49.926;8.404;2023-02-28T17:20:28;17.47;;;10.57;;
16766;SDS011;8501;49.926;8.404;2023-02-28T17:22:54;15.53;;;9.07;;
16766;SDS011;8501;49.926;8.404;2023-02-28T17:25:21;15.17;;;9.43;;
16766;SDS011;8501;49.926;8.404;2023-02-28T17:27:48;13.70;;;8.83;;
16766;SDS011;8501;49.926;8.404;2023-02-28T17:30:17;14.37;;;8.67;;
16766;SDS011;8501;49.926;8.404;2023-02-28T17:32:45;17.00;;;10.73;;
16766;SDS011;8501;49.926;8.404;2023-02-28T17:35:10;15.67;;;10.13;;
16766;SDS011;8501;49.926;8.404;2023-02-28T17:37:36;15.73;;;9.67;;
16766;SDS011;8501;49.926;8.404;2023-02-28T17:40:02;18.50;;;11.73;;
16766;SDS011;8501;49.926;8.404;2023-02-28T17:42:28;19.30;;;10.67;;
16766;SDS011;8501;49.926;8.404;2023-02-28T17:44:54;18.33;;;11.53;;
16766;SDS011;8501;49.926;8.404;2023-02-28T17:47:19;19.03;;;12.33;;
16766;SDS011;8501;49.926;8.404;2023-02-28T17:49:45;22.33;;;13.33;;
16766;SDS011;8501;49.926;8.404;2023-02-28T17:52:10;16.23;;;10.37;;
16766;SDS011;8501;49.926;8.404;2023-02-28T17:54:36;14.70;;;9.27;;
16766;SDS011;8501;49.926;8.404;2023-02-28T17:57:01;17.03;;;10.17;;